Time;durP1;ratioP1;P1;durP2;ratioP2;P2;SDS_P1;SDS_P2;PMS_P1;PMS_P2;Temp;Humidity;BMP_temperature;BMP_pressure;BME280_temperature;BME280_humidity;BME280_pressure;Samples;Min_cycle;Max_cycle;Signal;HPM_P1;HPM_P2
2021/12/02 00:01:07;;;;;;;7.60;3.00;;;5.70;99.90;;;;;;5031025;28;20539;-80
2021/12/02 00:03:36;;;;;;;7.60;2.30;;;5.70;99.90;;;;;;5029118;28;20565;-81
2021/12/02 00:06:10;;;;;;;6.17;2.40;;;5.70;99.90;;;;;;5029262;28;20460;-80
2021/12/02 00:08:37;;;;;;;9.10;2.73;;;5.70;99.90;;;;;;5027521;28;20482;-80
2021/12/02 00:11:04;;;;;;;7.97;2.50;;;5.70;99.90;;;;;;5033930;28;21039;-82
2021/12/02 00:13:39;;;;;;;7.70;3.23;;;5.70;99.90;;;;;;5032001;28;20482;-82
2021/12/02 00:16:18;;;;;;;9.73;2.77;;;5.80;99.90;;;;;;5030355;28;20473;-80
2021/12/02 00:21:31;;;;;;;9.40;2.67;;;5.80;99.90;;;;;;5026273;28;20452;-82
2021/12/02 00:24:03;;;;;;;8.30;2.63;;;5.80;99.90;;;;;;5032466;28;20518;-81
2021/12/02 00:26:31;;;;;;;11.13;2.83;;;5.80;99.90;;;;;;5028420;28;20463;-81
2021/12/02 00:29:00;;;;;;;6.67;2.40;;;5.90;99.90;;;;;;5035141;28;20563;-80
2021/12/02 00:31:30;;;;;;;6.43;2.90;;;5.90;99.90;;;;;;5030876;28;20478;-81
2021/12/02 00:34:00;;;;;;;10.30;2.73;;;6.00;99.90;;;;;;5035948;28;20517;-80
2021/12/02 00:36:29;;;;;;;7.83;3.27;;;6.00;99.90;;;;;;5025002;28;20489;-81
2021/12/02 00:38:58;;;;;;;11.53;4.33;;;5.90;99.90;;;;;;5027801;28;20482;-81
2021/12/02 00:41:27;;;;;;;7.17;3.77;;;5.90;99.90;;;;;;5030816;28;20541;-81
2021/12/02 00:43:57;;;;;;;9.53;4.40;;;5.90;99.90;;;;;;5033265;28;20479;-82
2021/12/02 00:46:26;;;;;;;12.30;4.53;;;5.90;99.90;;;;;;5028637;28;20452;-81
2021/12/02 00:48:54;;;;;;;11.30;4.23;;;5.90;99.90;;;;;;5035540;28;20551;-81
2021/12/02 00:51:22;;;;;;;7.30;3.23;;;5.90;99.90;;;;;;5035249;28;20920;-80
2021/12/02 00:53:53;;;;;;;13.80;4.30;;;5.90;99.90;;;;;;5036024;28;20479;-82
2021/12/02 00:56:24;;;;;;;13.77;3.70;;;5.90;99.90;;;;;;5031477;28;20454;-81
2021/12/02 00:58:51;;;;;;;11.70;4.53;;;5.90;99.90;;;;;;5034600;28;20483;-83
2021/12/02 01:01:20;;;;;;;12.27;3.83;;;5.90;99.90;;;;;;5034155;28;20524;-80
2021/12/02 01:03:49;;;;;;;8.37;3.70;;;5.90;99.90;;;;;;5035417;28;20502;-82
2021/12/02 01:06:17;;;;;;;14.07;4.03;;;6.00;99.90;;;;;;5035884;28;20819;-80
2021/12/02 01:08:45;;;;;;;11.20;3.70;;;6.00;99.90;;;;;;5035661;28;20565;-82
2021/12/02 01:11:13;;;;;;;10.63;3.50;;;6.00;99.90;;;;;;5030197;28;20489;-82
2021/12/02 01:13:40;;;;;;;7.17;3.20;;;6.10;99.90;;;;;;5016696;28;20603;-81
2021/12/02 01:16:07;;;;;;;13.07;3.90;;;6.00;99.90;;;;;;5034305;28;20486;-82
2021/12/02 01:18:34;;;;;;;11.90;3.63;;;6.10;99.90;;;;;;5035976;28;20455;-81
2021/12/02 01:21:03;;;;;;;8.73;3.23;;;6.00;99.90;;;;;;5035162;28;20519;-82
2021/12/02 01:23:33;;;;;;;10.37;3.70;;;6.00;99.90;;;;;;5035552;28;21007;-81
2021/12/02 01:26:05;;;;;;;11.80;3.57;;;6.00;99.90;;;;;;5036211;28;20960;-81
2021/12/02 01:28:33;;;;;;;12.10;2.60;;;6.00;99.90;;;;;;5033777;28;20902;-82
2021/12/02 01:31:00;;;;;;;6.07;2.53;;;6.00;99.90;;;;;;5034694;28;20511;-81
2021/12/02 01:33:28;;;;;;;12.10;3.43;;;6.10;99.90;;;;;;5035674;28;20486;-81
2021/12/02 01:35:58;;;;;;;5.97;2.63;;;6.10;99.90;;;;;;5036534;28;20959;-81
2021/12/02 01:38:26;;;;;;;7.33;3.07;;;6.10;99.90;;;;;;5036074;28;20455;-81
2021/12/02 01:40:56;;;;;;;8.03;2.97;;;6.10;99.90;;;;;;5025439;28;20497;-82
2021/12/02 01:43:47;;;;;;;11.03;2.80;;;6.10;99.90;;;;;;5020099;28;20459;-82
2021/12/02 01:46:15;;;;;;;7.77;2.73;;;6.00;99.90;;;;;;5033880;28;20525;-80
2021/12/02 01:48:43;;;;;;;10.13;2.70;;;6.00;99.90;;;;;;5040956;28;20546;-82
2021/12/02 01:51:12;;;;;;;12.23;2.57;;;5.90;99.90;;;;;;5041294;28;20546;-81
2021/12/02 01:53:41;;;;;;;9.57;2.93;;;5.90;99.90;;;;;;5040083;28;20520;-81
2021/12/02 01:56:11;;;;;;;8.30;2.60;;;5.80;99.90;;;;;;5041939;28;20550;-81
2021/12/02 01:58:46;;;;;;;10.03;2.60;;;5.80;99.90;;;;;;5060973;28;20986;-81
2021/12/02 02:01:17;;;;;;;8.40;2.50;;;5.80;99.90;;;;;;5059646;28;20965;-81
2021/12/02 02:03:44;;;;;;;7.33;2.90;;;5.80;99.90;;;;;;5060173;28;20566;-80
2021/12/02 02:06:14;;;;;;;12.03;3.07;;;5.80;99.90;;;;;;5031182;28;20540;-81
2021/12/02 02:08:46;;;;;;;12.20;2.90;;;5.80;99.90;;;;;;5019759;28;20497;-81
2021/12/02 02:11:14;;;;;;;8.57;2.50;;;5.90;99.90;;;;;;5020062;28;20458;-81
2021/12/02 02:13:44;;;;;;;11.33;3.30;;;5.90;99.90;;;;;;5030301;28;20480;-81
2021/12/02 02:16:11;;;;;;;6.13;2.70;;;5.90;99.90;;;;;;5032324;28;20509;-81
2021/12/02 02:18:40;;;;;;;10.17;3.00;;;5.90;99.90;;;;;;5026597;28;20547;-81
2021/12/02 02:21:09;;;;;;;6.30;2.43;;;5.90;99.90;;;;;;5038775;28;21033;-82
2021/12/02 02:23:42;;;;;;;10.37;2.83;;;5.90;99.90;;;;;;5039048;28;20461;-81
2021/12/02 02:26:09;;;;;;;10.90;2.90;;;5.90;99.90;;;;;;5035300;28;20459;-82
2021/12/02 02:28:38;;;;;;;10.20;2.87;;;6.00;99.90;;;;;;5038945;28;20546;-82
2021/12/02 02:31:05;;;;;;;8.70;2.70;;;6.00;99.90;;;;;;5031312;28;20504;-81
2021/12/02 02:33:36;;;;;;;3.87;1.93;;;5.90;99.90;;;;;;5028997;28;20521;-82
2021/12/02 02:36:05;;;;;;;5.97;2.10;;;5.90;99.90;;;;;;5039210;28;20485;-81
2021/12/02 02:38:34;;;;;;;5.93;2.30;;;5.80;99.90;;;;;;5038999;28;20491;-81
2021/12/02 02:41:02;;;;;;;10.53;2.93;;;5.90;99.90;;;;;;5038287;28;20519;-80
2021/12/02 02:43:31;;;;;;;9.10;2.90;;;5.80;99.90;;;;;;5036379;28;20467;-83
2021/12/02 02:45:58;;;;;;;21.00;4.33;;;5.90;99.90;;;;;;5018395;28;20554;-81
2021/12/02 02:48:25;;;;;;;7.23;3.57;;;5.90;99.90;;;;;;5035822;28;20492;-81
2021/12/02 02:50:52;;;;;;;9.83;3.67;;;5.90;99.90;;;;;;5033386;28;20567;-81
2021/12/02 02:53:22;;;;;;;7.27;3.23;;;5.90;99.90;;;;;;5037040;28;20483;-81
2021/12/02 02:56:00;;;;;;;11.60;3.77;;;5.90;99.90;;;;;;5038210;28;20454;-81
2021/12/02 02:58:33;;;;;;;7.73;3.47;;;5.90;99.90;;;;;;5036807;28;20546;-81
2021/12/02 03:01:05;;;;;;;11.67;3.30;;;5.90;99.90;;;;;;5037145;28;20904;-81
2021/12/02 03:03:40;;;;;;;10.20;3.30;;;5.90;99.90;;;;;;5038704;28;20487;-80
2021/12/02 03:06:27;;;;;;;7.30;2.40;;;5.90;99.90;;;;;;5037586;28;20556;-81
2021/12/02 03:09:00;;;;;;;7.77;2.43;;;5.90;99.90;;;;;;5033124;28;20539;-83
2021/12/02 03:11:38;;;;;;;10.13;2.67;;;5.80;99.90;;;;;;5032338;28;20483;-81
2021/12/02 03:14:10;;;;;;;6.57;2.90;;;5.90;99.90;;;;;;5030275;28;20827;-80
2021/12/02 03:16:45;;;;;;;5.93;2.33;;;5.80;99.90;;;;;;5036961;28;20472;-80
2021/12/02 03:19:13;;;;;;;5.23;2.13;;;5.70;99.90;;;;;;5038051;28;20509;-81
2021/12/02 03:21:40;;;;;;;5.20;3.13;;;5.80;99.90;;;;;;5038009;28;20522;-80
2021/12/02 03:24:07;;;;;;;8.60;3.60;;;5.80;99.90;;;;;;5024914;28;20503;-81
2021/12/02 03:26:36;;;;;;;9.23;2.50;;;5.70;99.90;;;;;;5034290;28;20450;-81
2021/12/02 03:29:04;;;;;;;8.90;2.83;;;5.70;99.90;;;;;;5058368;28;20465;-81
2021/12/02 03:31:31;;;;;;;6.20;2.70;;;5.70;99.90;;;;;;5057888;28;20533;-81
2021/12/02 03:33:58;;;;;;;5.10;3.10;;;5.70;99.90;;;;;;5058529;28;20549;-82
2021/12/02 03:36:25;;;;;;;7.00;2.60;;;5.70;99.90;;;;;;5058177;28;21011;-82
2021/12/02 03:38:52;;;;;;;6.30;2.70;;;5.70;99.90;;;;;;5050044;28;20538;-82
2021/12/02 03:41:19;;;;;;;7.00;2.80;;;5.80;99.90;;;;;;5036382;28;20488;-82
2021/12/02 03:43:49;;;;;;;3.67;2.07;;;5.80;99.90;;;;;;5036406;28;20553;-81
2021/12/02 03:46:20;;;;;;;8.50;3.37;;;5.80;99.90;;;;;;5038337;28;20540;-82
2021/12/02 03:48:48;;;;;;;5.53;2.50;;;5.70;99.90;;;;;;5038280;28;20481;-80
2021/12/02 03:51:15;;;;;;;6.37;3.00;;;5.70;99.90;;;;;;5037668;28;20549;-81
2021/12/02 03:53:42;;;;;;;10.00;3.13;;;5.60;99.90;;;;;;5034804;28;20487;-82
2021/12/02 03:56:09;;;;;;;9.57;2.80;;;5.60;99.90;;;;;;5037917;28;20529;-81
2021/12/02 03:58:38;;;;;;;6.23;2.57;;;5.50;99.90;;;;;;5038938;28;20599;-80
2021/12/02 04:01:09;;;;;;;6.03;2.57;;;5.60;99.90;;;;;;5034106;28;20518;-82
2021/12/02 04:03:36;;;;;;;5.27;2.43;;;5.50;99.90;;;;;;5035916;28;20495;-80
2021/12/02 04:06:04;;;;;;;5.47;2.77;;;5.60;99.90;;;;;;5037202;28;21002;-82
2021/12/02 04:08:38;;;;;;;4.77;1.70;;;5.60;99.90;;;;;;5035320;28;20462;-80
2021/12/02 04:11:16;;;;;;;6.30;2.00;;;5.60;99.90;;;;;;5028433;28;20560;-81
2021/12/02 04:13:51;;;;;;;7.20;2.47;;;5.50;99.90;;;;;;5037275;28;20466;-82
2021/12/02 04:16:20;;;;;;;7.27;2.83;;;5.60;99.90;;;;;;5037676;28;20465;-81
2021/12/02 04:18:47;;;;;;;4.43;1.80;;;5.50;99.90;;;;;;5035644;28;20451;-82
2021/12/02 04:21:15;;;;;;;7.07;2.20;;;5.40;99.90;;;;;;5035879;28;20454;-82
2021/12/02 04:23:41;;;;;;;6.60;2.50;;;5.40;99.90;;;;;;5036353;28;20460;-80
2021/12/02 04:26:08;;;;;;;6.67;2.20;;;5.40;99.90;;;;;;5036362;28;20558;-81
2021/12/02 04:28:35;;;;;;;5.07;2.20;;;5.30;99.90;;;;;;5036373;28;20531;-82
2021/12/02 04:31:03;;;;;;;11.10;3.27;;;5.20;99.90;;;;;;5035909;28;20502;-81
2021/12/02 04:33:31;;;;;;;5.77;2.60;;;5.20;99.90;;;;;;5037821;28;20497;-81
2021/12/02 04:35:59;;;;;;;6.13;2.63;;;5.20;99.90;;;;;;5039838;28;20449;-81
2021/12/02 04:38:27;;;;;;;4.77;2.33;;;5.10;99.90;;;;;;5037457;28;20983;-81
2021/12/02 04:40:54;;;;;;;7.13;2.60;;;5.10;99.90;;;;;;5028131;28;20509;-83
2021/12/02 04:43:21;;;;;;;7.47;2.83;;;5.10;99.90;;;;;;5041082;28;20532;-85
2021/12/02 04:45:48;;;;;;;4.03;2.57;;;5.10;99.90;;;;;;5040107;28;20473;-85
2021/12/02 04:48:15;;;;;;;6.40;2.40;;;5.00;99.90;;;;;;5041931;28;20477;-85
2021/12/02 04:50:44;;;;;;;11.20;3.50;;;5.00;99.90;;;;;;5030214;28;20482;-85
2021/12/02 04:53:12;;;;;;;4.33;3.00;;;5.00;99.90;;;;;;5041800;28;20637;-85
2021/12/02 04:55:40;;;;;;;5.97;3.43;;;5.00;99.90;;;;;;5041054;28;20446;-85
2021/12/02 04:58:07;;;;;;;10.17;3.70;;;5.10;99.90;;;;;;5061331;28;20488;-85
2021/12/02 05:00:35;;;;;;;8.77;3.10;;;5.00;99.90;;;;;;5045178;28;20874;-83
2021/12/02 05:03:02;;;;;;;4.93;2.97;;;5.00;99.90;;;;;;5035870;28;20483;-83
2021/12/02 05:05:29;;;;;;;7.47;3.50;;;5.00;99.90;;;;;;5037794;28;20479;-83
2021/12/02 05:07:59;;;;;;;2.10;1.10;;;5.10;99.90;;;;;;5036607;28;20477;-79
2021/12/02 05:10:26;;;;;;;4.17;2.60;;;5.90;99.90;;;;;;5032748;28;20474;-79
2021/12/02 05:12:53;;;;;;;6.80;2.23;;;6.10;99.90;;;;;;5027049;28;20477;-83
2021/12/02 05:15:20;;;;;;;6.23;1.87;;;6.70;99.90;;;;;;5031216;28;20523;-82
2021/12/02 05:17:47;;;;;;;4.93;2.03;;;6.20;99.90;;;;;;5034654;28;20535;-83
2021/12/02 05:20:14;;;;;;;3.87;1.90;;;5.90;99.90;;;;;;5034304;28;20494;-81
2021/12/02 05:22:41;;;;;;;8.27;2.60;;;5.80;99.90;;;;;;5034448;28;20456;-83
2021/12/02 05:25:10;;;;;;;4.00;2.53;;;5.60;99.90;;;;;;5035419;28;20832;-82
2021/12/02 05:27:37;;;;;;;6.13;2.67;;;5.40;99.90;;;;;;5035284;28;20481;-83
2021/12/02 05:30:05;;;;;;;5.60;3.60;;;5.20;99.90;;;;;;5026319;28;20528;-83
2021/12/02 05:32:32;;;;;;;6.13;2.40;;;5.10;99.90;;;;;;5024201;28;20470;-83
2021/12/02 05:34:59;;;;;;;9.17;2.97;;;5.00;99.90;;;;;;5038567;28;20986;-83
2021/12/02 05:37:27;;;;;;;7.27;2.30;;;4.90;99.90;;;;;;5037030;28;20540;-83
2021/12/02 05:39:53;;;;;;;7.00;2.90;;;4.80;99.90;;;;;;5038422;28;20479;-81
2021/12/02 05:42:22;;;;;;;4.43;2.10;;;4.60;99.90;;;;;;5036348;28;20453;-83
2021/12/02 05:44:49;;;;;;;3.83;1.77;;;4.60;99.90;;;;;;5038747;28;20512;-83
2021/12/02 05:47:16;;;;;;;4.83;2.37;;;4.60;99.90;;;;;;5036166;28;20445;-83
2021/12/02 05:49:43;;;;;;;9.33;2.90;;;4.50;99.90;;;;;;5029429;28;20504;-83
2021/12/02 05:52:10;;;;;;;7.73;4.73;;;4.50;99.90;;;;;;5037454;28;20482;-82
2021/12/02 05:54:37;;;;;;;4.77;2.00;;;4.40;99.90;;;;;;5037136;28;20477;-83
2021/12/02 05:57:04;;;;;;;6.27;2.07;;;4.40;99.90;;;;;;5038186;28;20488;-83
2021/12/02 05:59:32;;;;;;;4.87;1.83;;;4.40;99.90;;;;;;5037482;28;20496;-84
2021/12/02 06:01:59;;;;;;;8.80;2.13;;;4.40;99.90;;;;;;5036055;28;20449;-83
2021/12/02 06:04:26;;;;;;;4.63;1.70;;;4.40;99.90;;;;;;5037724;28;20474;-82
2021/12/02 06:06:53;;;;;;;4.33;2.07;;;4.40;99.90;;;;;;5036228;28;20461;-83
2021/12/02 06:09:20;;;;;;;5.50;1.70;;;4.40;99.90;;;;;;5038701;28;20482;-83
2021/12/02 06:11:47;;;;;;;4.07;2.07;;;4.40;99.90;;;;;;5038150;28;20493;-85
2021/12/02 06:14:15;;;;;;;6.90;2.63;;;4.40;99.90;;;;;;5033071;28;20481;-84
2021/12/02 06:16:44;;;;;;;4.13;2.50;;;4.30;99.90;;;;;;5040046;28;20453;-84
2021/12/02 06:19:11;;;;;;;4.10;2.10;;;4.30;99.90;;;;;;5038507;28;20609;-82
2021/12/02 06:21:39;;;;;;;7.23;2.50;;;4.30;99.90;;;;;;5037746;28;20544;-83
2021/12/02 06:24:08;;;;;;;6.07;3.20;;;4.40;99.90;;;;;;5029178;28;20486;-83
2021/12/02 06:26:35;;;;;;;6.90;3.03;;;4.50;99.90;;;;;;5020687;28;20569;-83
2021/12/02 06:29:02;;;;;;;7.97;3.37;;;4.50;99.90;;;;;;5019630;28;20463;-83
2021/12/02 06:31:29;;;;;;;5.53;2.97;;;4.50;99.90;;;;;;5022959;28;20549;-82
2021/12/02 06:33:57;;;;;;;5.80;2.60;;;4.60;99.90;;;;;;5022903;28;20477;-84
2021/12/02 06:36:24;;;;;;;8.13;3.20;;;4.60;99.90;;;;;;5022747;28;20457;-83
2021/12/02 06:38:51;;;;;;;5.13;2.40;;;4.60;99.90;;;;;;5022995;28;20491;-82
2021/12/02 06:41:18;;;;;;;6.73;2.87;;;4.60;99.90;;;;;;5026823;28;20479;-82
2021/12/02 06:43:45;;;;;;;5.33;2.57;;;4.70;99.90;;;;;;5043112;28;20479;-83
2021/12/02 06:46:12;;;;;;;10.93;3.23;;;4.80;99.90;;;;;;5042989;28;20481;-81
2021/12/02 06:48:39;;;;;;;6.47;3.10;;;4.90;99.90;;;;;;5041687;28;20459;-83
2021/12/02 06:51:10;;;;;;;5.70;3.00;;;4.80;99.90;;;;;;5043365;28;20536;-82
2021/12/02 06:53:37;;;;;;;10.93;3.17;;;4.80;99.90;;;;;;5043011;28;20473;-83
2021/12/02 06:56:04;;;;;;;7.50;3.23;;;4.80;99.90;;;;;;5039586;28;20996;-82
2021/12/02 06:58:31;;;;;;;3.73;2.00;;;4.80;99.90;;;;;;5040539;28;20979;-83
2021/12/02 07:00:58;;;;;;;5.80;2.27;;;4.80;99.90;;;;;;5036628;28;20527;-80
2021/12/02 07:03:28;;;;;;;5.30;2.23;;;4.80;99.90;;;;;;5029125;28;20461;-82
2021/12/02 07:05:55;;;;;;;9.23;2.60;;;4.70;99.90;;;;;;5026877;28;20519;-84
2021/12/02 07:08:24;;;;;;;4.70;2.20;;;4.50;99.90;;;;;;5029683;28;20508;-82
2021/12/02 07:10:51;;;;;;;3.90;2.20;;;4.70;99.90;;;;;;5029637;28;20556;-83
2021/12/02 07:13:18;;;;;;;5.03;2.70;;;4.80;99.90;;;;;;5037206;28;20443;-84
2021/12/02 07:15:50;;;;;;;8.53;2.70;;;4.80;99.90;;;;;;5046213;28;20456;-84
2021/12/02 07:18:17;;;;;;;4.93;2.33;;;4.80;99.90;;;;;;5029611;28;20950;-84
2021/12/02 07:20:46;;;;;;;7.43;2.90;;;4.90;99.90;;;;;;5040168;28;20538;-83
2021/12/02 07:23:14;;;;;;;7.10;2.97;;;4.90;99.90;;;;;;5043356;28;20443;-82
2021/12/02 07:25:43;;;;;;;7.30;4.03;;;4.90;99.90;;;;;;5041414;28;20505;-82
2021/12/02 07:28:10;;;;;;;11.70;5.07;;;4.90;99.90;;;;;;5042621;28;20556;-83
2021/12/02 07:30:37;;;;;;;7.50;4.50;;;4.80;99.90;;;;;;5025860;28;21064;-83
2021/12/02 07:33:05;;;;;;;7.50;5.20;;;4.90;99.90;;;;;;5037791;28;20541;-84
2021/12/02 07:35:32;;;;;;;12.20;5.60;;;4.90;99.90;;;;;;5024715;28;20445;-81
2021/12/02 07:38:00;;;;;;;8.40;6.60;;;4.90;99.90;;;;;;5042060;28;20457;-82
2021/12/02 07:40:33;;;;;;;9.63;6.73;;;4.80;99.90;;;;;;5041683;28;20485;-84
2021/12/02 07:43:01;;;;;;;7.57;6.23;;;4.80;99.90;;;;;;5041520;28;20855;-81
2021/12/02 07:45:31;;;;;;;8.60;7.07;;;4.80;99.90;;;;;;5032665;28;20505;-82
2021/12/02 07:47:59;;;;;;;9.33;6.20;;;4.80;99.90;;;;;;5028153;28;20461;-84
2021/12/02 07:50:26;;;;;;;9.10;7.03;;;4.70;99.90;;;;;;5027038;28;20563;-85
2021/12/02 07:52:55;;;;;;;11.80;6.83;;;4.50;99.90;;;;;;5027445;28;20558;-83
2021/12/02 07:55:23;;;;;;;11.17;7.77;;;4.50;99.90;;;;;;5030066;28;20539;-85
2021/12/02 07:57:51;;;;;;;11.20;7.40;;;4.40;99.90;;;;;;5038507;28;20477;-84
2021/12/02 08:00:22;;;;;;;16.90;7.23;;;4.50;99.90;;;;;;5038918;28;20559;-82
2021/12/02 08:02:51;;;;;;;7.17;5.67;;;4.50;99.90;;;;;;5034388;28;20515;-84
2021/12/02 08:05:21;;;;;;;9.03;5.83;;;4.50;99.90;;;;;;5030974;28;20476;-84
2021/12/02 08:07:48;;;;;;;6.10;4.30;;;4.50;99.90;;;;;;5029845;28;20883;-83
2021/12/02 08:10:16;;;;;;;5.30;3.80;;;4.50;99.90;;;;;;5030125;28;20893;-84
2021/12/02 08:12:47;;;;;;;5.13;3.80;;;4.60;99.90;;;;;;5029548;28;20473;-82
2021/12/02 08:15:17;;;;;;;4.93;3.50;;;4.60;99.90;;;;;;5036729;28;20449;-82
2021/12/02 08:17:45;;;;;;;3.40;2.47;;;4.70;99.90;;;;;;5024600;28;20477;-82
2021/12/02 08:20:13;;;;;;;2.90;2.00;;;4.70;99.90;;;;;;5032457;28;20515;-83
2021/12/02 08:22:40;;;;;;;3.50;2.40;;;4.70;99.90;;;;;;5032525;28;20454;-83
2021/12/02 08:25:08;;;;;;;3.83;1.90;;;4.80;99.90;;;;;;5025492;28;20445;-81
2021/12/02 08:27:35;;;;;;;4.77;2.03;;;4.80;99.90;;;;;;5027096;28;20563;-83
2021/12/02 08:30:03;;;;;;;2.93;1.40;;;4.70;99.90;;;;;;5037106;28;20492;-81
2021/12/02 08:32:30;;;;;;;4.60;1.50;;;4.60;99.90;;;;;;5034464;28;20675;-82
2021/12/02 08:35:00;;;;;;;2.10;1.10;;;4.40;99.90;;;;;;5037815;28;20455;-84
2021/12/02 08:37:30;;;;;;;3.00;1.27;;;4.50;99.90;;;;;;5029179;28;20444;-83
2021/12/02 08:39:59;;;;;;;2.30;1.30;;;4.50;99.90;;;;;;5033293;28;20486;-84
2021/12/02 08:42:27;;;;;;;5.77;1.70;;;4.50;99.90;;;;;;5038588;28;20457;-82
2021/12/02 08:44:54;;;;;;;3.80;1.60;;;4.60;99.90;;;;;;5037106;28;20449;-83
2021/12/02 08:47:22;;;;;;;2.53;1.50;;;4.70;99.90;;;;;;5034671;28;20489;-84
2021/12/02 08:49:52;;;;;;;4.00;2.07;;;4.80;99.90;;;;;;5038522;28;20563;-84
2021/12/02 08:52:21;;;;;;;4.57;2.30;;;4.80;99.90;;;;;;5035702;28;20454;-85
2021/12/02 08:54:49;;;;;;;4.20;2.33;;;4.90;99.90;;;;;;5039234;28;20532;-83
2021/12/02 08:57:17;;;;;;;4.67;2.63;;;4.90;99.90;;;;;;5031339;28;20505;-83
2021/12/02 08:59:44;;;;;;;4.50;3.00;;;4.90;99.90;;;;;;5037256;28;21077;-82
2021/12/02 09:02:11;;;;;;;4.63;3.07;;;4.80;99.90;;;;;;5037428;28;20460;-82
2021/12/02 09:04:39;;;;;;;6.80;4.93;;;4.90;99.90;;;;;;5039045;28;20872;-84
2021/12/02 09:07:06;;;;;;;5.00;3.57;;;4.90;99.90;;;;;;5039698;28;20477;-83
2021/12/02 09:09:35;;;;;;;4.67;3.40;;;4.90;99.90;;;;;;5038702;28;20511;-83
2021/12/02 09:12:02;;;;;;;8.47;2.80;;;4.90;99.90;;;;;;5036939;28;20544;-84
2021/12/02 09:14:29;;;;;;;3.17;2.10;;;4.90;99.90;;;;;;5023514;28;20887;-83
2021/12/02 09:16:56;;;;;;;3.50;2.37;;;5.00;99.90;;;;;;5036362;28;20450;-83
2021/12/02 09:19:23;;;;;;;5.30;1.70;;;5.00;99.90;;;;;;5035989;28;20560;-82
2021/12/02 09:21:50;;;;;;;6.10;2.47;;;4.90;99.90;;;;;;5035635;28;20462;-83
2021/12/02 09:24:19;;;;;;;4.17;2.13;;;4.80;99.90;;;;;;5036468;28;20476;-83
2021/12/02 09:26:49;;;;;;;5.83;1.93;;;4.90;99.90;;;;;;5035774;28;20488;-81
2021/12/02 09:29:17;;;;;;;8.10;4.20;;;5.00;99.90;;;;;;5036102;28;20514;-81
2021/12/02 09:31:44;;;;;;;4.07;2.10;;;5.10;99.90;;;;;;5024853;28;20458;-83
2021/12/02 09:34:11;;;;;;;4.80;2.63;;;5.10;99.90;;;;;;5030515;28;20568;-82
2021/12/02 09:36:38;;;;;;;4.03;2.37;;;5.00;99.90;;;;;;5033647;28;20446;-82
2021/12/02 09:39:07;;;;;;;3.30;1.80;;;5.00;99.90;;;;;;5031445;28;20516;-83
2021/12/02 09:41:34;;;;;;;3.40;2.40;;;5.10;99.90;;;;;;5027480;28;20487;-83
2021/12/02 09:44:02;;;;;;;7.03;3.30;;;5.40;99.90;;;;;;5035179;28;20473;-81
2021/12/02 09:46:29;;;;;;;11.40;3.77;;;5.50;99.90;;;;;;5031836;28;20912;-83
2021/12/02 09:48:58;;;;;;;5.70;3.03;;;5.40;99.90;;;;;;5018076;28;20489;-83
2021/12/02 09:51:29;;;;;;;4.47;3.30;;;5.30;99.90;;;;;;5015745;28;20457;-82
2021/12/02 09:53:58;;;;;;;6.73;3.00;;;5.20;99.90;;;;;;5016230;28;20451;-82
2021/12/02 09:56:29;;;;;;;4.40;2.80;;;5.10;99.90;;;;;;5031953;28;21067;-82
2021/12/02 09:59:03;;;;;;;6.53;2.57;;;5.10;99.90;;;;;;5035003;28;20961;-82
2021/12/02 10:01:38;;;;;;;7.30;3.17;;;5.10;99.90;;;;;;5035267;28;20457;-83
2021/12/02 10:04:06;;;;;;;4.67;2.27;;;5.10;99.90;;;;;;5037241;28;20465;-82
2021/12/02 10:06:33;;;;;;;3.40;2.50;;;5.30;99.90;;;;;;5036627;28;20534;-81
2021/12/02 10:09:10;;;;;;;5.93;3.33;;;5.30;99.90;;;;;;5036109;28;20465;-82
2021/12/02 10:11:44;;;;;;;4.20;2.60;;;5.30;99.90;;;;;;5026619;28;20498;-82
2021/12/02 10:14:18;;;;;;;4.80;2.40;;;5.30;99.90;;;;;;5023610;28;20961;-81
2021/12/02 10:16:48;;;;;;;9.90;3.57;;;5.20;99.90;;;;;;5030457;28;20460;-83
2021/12/02 10:19:17;;;;;;;5.47;3.70;;;5.20;99.90;;;;;;5033712;28;20492;-80
2021/12/02 10:21:50;;;;;;;9.60;3.83;;;5.10;99.90;;;;;;5032483;28;20462;-81
2021/12/02 10:24:20;;;;;;;4.97;2.20;;;5.10;99.90;;;;;;5034339;28;20458;-83
2021/12/02 10:26:50;;;;;;;4.97;2.73;;;5.00;99.90;;;;;;5040649;28;20493;-80
2021/12/02 10:29:20;;;;;;;4.83;2.77;;;4.90;99.90;;;;;;5039544;28;20478;-81
2021/12/02 10:32:03;;;;;;;5.50;2.80;;;4.90;99.90;;;;;;5040976;28;20586;-81
2021/12/02 10:34:30;;;;;;;4.77;2.83;;;4.80;99.90;;;;;;5046044;28;20463;-82
2021/12/02 10:37:10;;;;;;;5.80;3.13;;;4.90;99.90;;;;;;5038697;28;20482;-82
2021/12/02 10:39:37;;;;;;;7.23;3.27;;;4.90;99.90;;;;;;5039110;28;21022;-83
2021/12/02 10:42:07;;;;;;;5.77;2.83;;;5.00;99.90;;;;;;5035183;28;20453;-85
2021/12/02 10:44:35;;;;;;;3.67;2.00;;;5.00;99.90;;;;;;5032161;28;20492;-82
2021/12/02 10:47:07;;;;;;;5.10;2.95;;;5.10;99.90;;;;;;5038413;28;20536;-82
2021/12/02 10:49:39;;;;;;;4.40;2.40;;;5.10;99.90;;;;;;5030535;28;20245;-81
2021/12/02 10:52:10;;;;;;;4.37;2.40;;;5.10;99.90;;;;;;5037744;28;20996;-84
2021/12/02 10:54:38;;;;;;;4.33;2.13;;;5.30;99.90;;;;;;5037059;28;20800;-84
2021/12/02 10:57:09;;;;;;;3.57;1.90;;;5.40;99.90;;;;;;5030249;28;20489;-83
2021/12/02 10:59:41;;;;;;;4.80;2.03;;;5.50;99.90;;;;;;5025662;28;20569;-83
2021/12/02 11:02:17;;;;;;;4.70;2.43;;;5.70;99.90;;;;;;5026961;28;20461;-83
2021/12/02 11:04:46;;;;;;;5.00;2.40;;;5.80;99.90;;;;;;5038954;28;20433;-82
2021/12/02 11:07:21;;;;;;;6.93;2.30;;;5.70;99.90;;;;;;5033849;28;20566;-82
2021/12/02 11:09:49;;;;;;;6.63;2.63;;;5.70;99.90;;;;;;5022757;28;20476;-82
2021/12/02 11:12:19;;;;;;;3.23;1.77;;;5.70;99.90;;;;;;5029336;28;20543;-82
2021/12/02 11:15:06;;;;;;;3.20;1.60;;;5.80;99.90;;;;;;5023061;28;20449;-83
2021/12/02 11:17:39;;;;;;;2.80;1.20;;;5.70;99.90;;;;;;5031405;28;20525;-83
2021/12/02 11:20:09;;;;;;;3.33;1.63;;;5.80;99.90;;;;;;5026844;28;20502;-85
2021/12/02 11:22:37;;;;;;;4.07;1.50;;;5.70;99.90;;;;;;5027908;28;20507;-83
2021/12/02 11:25:10;;;;;;;5.10;1.83;;;5.70;99.90;;;;;;5027901;28;20864;-84
2021/12/02 11:27:39;;;;;;;2.70;1.77;;;5.70;99.90;;;;;;5034555;28;20473;-84
2021/12/02 11:30:14;;;;;;;3.70;1.93;;;5.70;99.90;;;;;;5029982;28;20563;-84
2021/12/02 11:32:48;;;;;;;3.13;2.10;;;5.70;99.90;;;;;;5029279;28;20515;-83
2021/12/02 11:35:28;;;;;;;2.80;1.50;;;5.70;99.90;;;;;;5022535;28;20488;-82
2021/12/02 11:37:59;;;;;;;4.53;1.93;;;5.70;99.90;;;;;;5029571;28;20478;-81
2021/12/02 11:40:28;;;;;;;3.60;2.00;;;5.80;99.90;;;;;;5027402;28;20977;-84
2021/12/02 11:42:56;;;;;;;4.00;2.13;;;5.70;99.90;;;;;;5029753;28;20491;-83
2021/12/02 11:45:29;;;;;;;4.17;2.10;;;5.80;99.90;;;;;;5031306;28;20545;-83
2021/12/02 11:47:58;;;;;;;4.73;2.20;;;5.80;99.90;;;;;;5021926;28;21088;-83
2021/12/02 11:50:28;;;;;;;5.10;1.80;;;5.80;99.90;;;;;;5027854;28;20553;-83
2021/12/02 11:52:55;;;;;;;5.03;2.27;;;5.90;99.90;;;;;;5028409;28;20543;-86
2021/12/02 11:55:27;;;;;;;8.63;2.70;;;5.80;99.90;;;;;;5033330;28;20964;-79
2021/12/02 11:57:54;;;;;;;6.57;3.87;;;5.80;99.90;;;;;;5033026;28;20454;-80
2021/12/02 12:00:23;;;;;;;6.80;3.97;;;5.80;99.90;;;;;;5032631;28;20925;-83
2021/12/02 12:03:00;;;;;;;6.93;4.60;;;5.80;99.90;;;;;;5028458;28;20488;-83
2021/12/02 12:05:29;;;;;;;5.80;4.43;;;5.90;99.90;;;;;;5031280;28;20446;-84
2021/12/02 12:07:57;;;;;;;6.17;3.60;;;5.90;99.90;;;;;;5030734;28;20486;-82
2021/12/02 12:10:28;;;;;;;5.47;3.00;;;5.90;99.90;;;;;;5031084;28;20907;-78
2021/12/02 12:13:15;;;;;;;4.53;2.47;;;6.00;99.90;;;;;;5026021;28;20453;-83
2021/12/02 12:15:44;;;;;;;6.07;2.27;;;5.90;99.90;;;;;;5034155;28;20490;-82
2021/12/02 12:18:20;;;;;;;6.70;2.00;;;5.90;99.90;;;;;;5034685;28;20555;-81
2021/12/02 12:21:02;;;;;;;6.20;3.07;;;6.00;99.90;;;;;;5031284;28;21042;-83
2021/12/02 12:23:45;;;;;;;3.20;2.10;;;5.90;99.90;;;;;;5036958;28;20463;-83
2021/12/02 12:26:30;;;;;;;3.67;1.83;;;5.90;99.90;;;;;;5020380;28;20478;-81
2021/12/02 12:29:28;;;;;;;5.00;2.20;;;5.90;99.90;;;;;;5024330;28;20899;-83
2021/12/02 12:32:40;;;;;;;4.87;2.30;;;6.00;99.90;;;;;;5031325;28;20457;-81
2021/12/02 12:35:21;;;;;;;4.00;2.50;;;6.00;99.90;;;;;;5041466;28;20461;-83
2021/12/02 12:38:03;;;;;;;4.67;2.70;;;5.90;99.90;;;;;;5038008;28;20528;-85
2021/12/02 12:40:40;;;;;;;3.63;2.40;;;5.70;99.90;;;;;;5027700;28;20483;-83
2021/12/02 12:43:20;;;;;;;4.47;2.90;;;5.50;99.90;;;;;;5030523;28;20453;-84
2021/12/02 12:45:47;;;;;;;6.07;3.50;;;5.00;99.90;;;;;;5033387;28;20462;-82
2021/12/02 12:48:27;;;;;;;4.27;2.63;;;4.90;99.90;;;;;;5035856;28;20482;-84
2021/12/02 12:51:10;;;;;;;4.83;3.40;;;4.80;99.90;;;;;;5033817;28;20886;-84
2021/12/02 12:53:40;;;;;;;4.67;3.43;;;4.80;99.90;;;;;;5035525;28;20533;-83
2021/12/02 12:56:10;;;;;;;5.57;3.63;;;4.70;99.90;;;;;;5035394;28;20462;-84
2021/12/02 12:58:38;;;;;;;4.77;3.73;;;4.80;99.90;;;;;;5034644;28;20475;-82
2021/12/02 13:01:18;;;;;;;4.47;3.57;;;4.80;99.90;;;;;;5032272;28;20497;-84
2021/12/02 13:04:06;;;;;;;4.73;2.80;;;4.90;99.90;;;;;;5034158;28;20487;-83
2021/12/02 13:07:01;;;;;;;4.63;2.80;;;4.90;99.90;;;;;;5025319;28;20463;-81
2021/12/02 13:09:41;;;;;;;4.53;2.47;;;5.00;99.90;;;;;;5034386;28;20532;-83
2021/12/02 13:12:10;;;;;;;4.33;2.70;;;5.00;99.90;;;;;;5022880;28;20882;-82